Time;durP1;ratioP1;P1;durP2;ratioP2;P2;SDS_P1;SDS_P2;PMS_P1;PMS_P2;Temp;Humidity;BMP_temperature;BMP_pressure;BME280_temperature;BME280_humidity;BME280_pressure;Samples;Min_cycle;Max_cycle;Signal;HPM_P1;HPM_P2
2022/06/25 00:01:31;;;;;;;6.53;4.82;;;;;;;28.90;41.20;100534.72;5029893;27;98743;-70
2022/06/25 00:03:57;;;;;;;6.55;4.47;;;;;;;28.69;41.66;100534.44;5029082;27;98948;-70
2022/06/25 00:06:23;;;;;;;11.40;4.78;;;;;;;28.76;41.52;100535.47;5025683;28;97052;-70
2022/06/25 00:08:50;;;;;;;5.80;4.30;;;;;;;28.70;41.43;100536.16;5029052;27;96855;-70
2022/06/25 00:14:07;;;;;;;6.55;4.53;;;;;;;28.37;42.43;100538.13;5027474;28;97636;-70
2022/06/25 00:16:34;;;;;;;5.38;4.15;;;;;;;28.56;41.91;100536.88;5029477;27;96891;-70
2022/06/25 00:19:03;;;;;;;6.13;4.28;;;;;;;28.47;42.29;100533.34;5029617;27;97185;-70
2022/06/25 00:21:31;;;;;;;6.53;4.20;;;;;;;28.37;42.63;100538.13;5030103;27;98460;-70
2022/06/25 00:23:57;;;;;;;5.30;4.30;;;;;;;28.41;42.67;100541.38;5028088;28;100601;-71
2022/06/25 00:26:25;;;;;;;6.38;4.25;;;;;;;28.23;43.09;100541.56;5027071;27;97792;-71
2022/06/25 00:28:51;;;;;;;5.72;4.05;;;;;;;28.48;42.71;100529.63;5030393;28;97349;-70
2022/06/25 00:31:18;;;;;;;5.60;4.28;;;;;;;28.28;43.32;100532.91;5026841;27;99094;-70
2022/06/25 00:33:44;;;;;;;6.13;5.10;;;;;;;28.52;42.84;100525.53;5027670;27;101696;-70
2022/06/25 00:36:11;;;;;;;7.18;4.93;;;;;;;28.37;43.43;100523.69;5029354;27;96752;-71
2022/06/25 00:38:37;;;;;;;10.70;5.35;;;;;;;28.40;43.56;100520.63;5024542;27;96848;-71
2022/06/25 00:41:04;;;;;;;8.18;5.32;;;;;;;28.32;44.16;100528.81;5027215;27;101475;-72
2022/06/25 00:43:32;;;;;;;10.40;5.85;;;;;;;28.20;44.34;100530.19;5028314;27;98807;-70
2022/06/25 00:45:58;;;;;;;8.70;6.43;;;;;;;28.35;44.12;100525.75;5027150;27;96780;-70
2022/06/25 00:48:25;;;;;;;11.52;6.63;;;;;;;28.08;45.01;100533.25;5028729;28;98567;-70
2022/06/25 00:50:54;;;;;;;12.20;7.53;;;;;;;28.20;44.76;100538.34;5027398;27;98935;-71
2022/06/25 00:53:22;;;;;;;8.35;7.32;;;;;;;28.00;45.50;100535.13;5026652;27;99059;-71
2022/06/25 00:55:50;;;;;;;16.73;9.20;;;;;;;28.06;45.33;100538.00;5023982;28;96756;-71
2022/06/25 00:58:19;;;;;;;17.02;10.38;;;;;;;27.60;47.18;100541.41;5026427;28;96783;-71
2022/06/25 01:00:47;;;;;;;14.07;10.60;;;;;;;27.69;46.74;100543.13;5027169;27;97872;-71
2022/06/25 01:03:13;;;;;;;16.80;12.90;;;;;;;27.96;45.96;100529.19;5029443;27;98914;-71
2022/06/25 01:05:40;;;;;;;17.08;13.82;;;;;;;27.85;46.45;100529.53;5029687;27;97043;-71
2022/06/25 01:08:07;;;;;;;23.88;16.83;;;;;;;27.48;47.84;100526.47;5033605;27;96918;-71
2022/06/25 01:10:33;;;;;;;24.13;17.80;;;;;;;27.56;47.73;100529.22;5030064;27;99416;-71
2022/06/25 01:12:59;;;;;;;24.48;17.55;;;;;;;27.40;48.31;100523.72;5033252;27;99566;-71
2022/06/25 01:15:27;;;;;;;24.85;18.58;;;;;;;27.66;47.73;100525.31;5033584;27;96804;-71
2022/06/25 01:17:55;;;;;;;30.00;20.02;;;;;;;27.56;48.07;100510.22;5032343;27;97263;-71
2022/06/25 01:20:23;;;;;;;26.35;19.63;;;;;;;27.26;49.09;100514.38;5033770;27;98975;-71
2022/06/25 01:22:51;;;;;;;25.42;19.65;;;;;;;27.65;47.77;100518.19;5028767;27;99820;-73
2022/06/25 01:25:17;;;;;;;27.70;20.40;;;;;;;27.65;47.65;100514.63;5032905;27;97139;-71
2022/06/25 01:27:44;;;;;;;30.02;21.13;;;;;;;27.60;47.97;100515.13;5029336;27;98416;-70
2022/06/25 01:30:13;;;;;;;30.48;20.65;;;;;;;27.42;48.34;100519.84;5032623;28;98933;-70
2022/06/25 01:32:39;;;;;;;30.23;22.15;;;;;;;27.51;48.01;100510.69;5029346;27;99964;-70
2022/06/25 01:35:07;;;;;;;30.48;21.58;;;;;;;27.32;48.63;100517.28;5031024;28;96831;-70
2022/06/25 01:37:34;;;;;;;29.20;21.77;;;;;;;27.62;47.76;100518.53;5030169;27;97156;-71
2022/06/25 01:40:02;;;;;;;27.65;21.42;;;;;;;27.41;48.15;100515.44;5030291;27;99455;-70
2022/06/25 01:45:13;;;;;;;25.77;19.20;;;;;;;27.66;47.41;100517.16;5029452;28;96988;-71
2022/06/25 01:47:40;;;;;;;25.25;19.88;;;;;;;27.65;47.58;100518.19;5030899;27;98056;-71
2022/06/25 01:50:08;;;;;;;30.65;20.17;;;;;;;27.49;48.12;100517.31;5027664;28;99335;-69
2022/06/25 01:52:35;;;;;;;23.70;18.23;;;;;;;27.46;48.14;100518.47;5031879;27;98270;-70
2022/06/25 01:55:03;;;;;;;22.98;17.15;;;;;;;27.38;48.34;100510.31;5031713;27;96877;-71
2022/06/25 01:57:30;;;;;;;21.67;16.83;;;;;;;27.56;47.84;100513.78;5022669;28;96871;-71
2022/06/25 01:59:56;;;;;;;24.48;17.27;;;;;;;27.21;49.10;100514.06;5029488;27;102146;-71
2022/06/25 02:02:22;;;;;;;20.83;16.35;;;;;;;27.21;48.89;100514.91;5027901;28;99610;-71
2022/06/25 02:04:49;;;;;;;20.63;16.50;;;;;;;27.33;48.72;100513.56;5031767;27;97255;-71
2022/06/25 02:07:15;;;;;;;21.95;15.27;;;;;;;27.35;48.57;100524.25;5024770;27;96817;-72
2022/06/25 02:09:42;;;;;;;19.85;13.95;;;;;;;27.37;48.69;100517.63;5032028;27;98478;-70
2022/06/25 02:12:09;;;;;;;18.27;14.00;;;;;;;27.30;49.11;100522.03;5028785;27;98809;-70
2022/06/25 02:14:36;;;;;;;20.25;14.93;;;;;;;27.32;49.33;100522.72;5030113;27;97249;-71
2022/06/25 02:17:03;;;;;;;20.15;16.02;;;;;;;27.10;49.78;100517.94;5030562;27;97049;-70
2022/06/25 02:19:29;;;;;;;20.15;14.52;;;;;;;27.08;49.87;100519.97;5029213;28;97231;-70
2022/06/25 02:21:56;;;;;;;18.42;14.02;;;;;;;27.15;49.84;100517.44;5030804;27;100847;-71
2022/06/25 02:24:22;;;;;;;21.63;14.10;;;;;;;27.25;49.51;100518.97;5031322;27;96596;-71
2022/06/25 02:26:48;;;;;;;18.30;13.50;;;;;;;27.18;49.80;100526.06;5031118;27;97323;-70
2022/06/25 02:29:16;;;;;;;21.35;14.10;;;;;;;27.16;49.94;100527.28;5032567;27;98979;-70
2022/06/25 02:31:43;;;;;;;21.40;14.95;;;;;;;26.88;50.69;100524.78;5027796;27;98942;-71
2022/06/25 02:34:09;;;;;;;19.77;13.82;;;;;;;27.00;50.12;100528.06;5032581;27;97503;-70
2022/06/25 02:36:35;;;;;;;20.65;14.55;;;;;;;26.90;50.82;100528.22;5028829;27;96826;-70
2022/06/25 02:39:02;;;;;;;19.27;14.05;;;;;;;26.75;51.29;100537.09;5031307;27;98968;-70
2022/06/25 02:41:28;;;;;;;20.98;14.82;;;;;;;26.52;51.60;100529.53;5030922;27;97517;-71
2022/06/25 02:43:55;;;;;;;18.27;14.20;;;;;;;26.72;51.40;100526.56;5026950;27;97243;-71
2022/06/25 02:46:23;;;;;;;15.45;13.57;;;;;;;26.64;51.65;100534.69;5030780;28;98871;-72
2022/06/25 02:48:49;;;;;;;18.13;13.50;;;;;;;26.75;50.85;100529.81;5032150;27;99140;-71
2022/06/25 02:51:16;;;;;;;17.45;14.13;;;;;;;26.67;51.12;100537.91;5029844;27;98970;-70
2022/06/25 02:53:42;;;;;;;20.95;13.05;;;;;;;26.82;50.53;100543.56;5028769;27;96884;-72
2022/06/25 02:58:55;;;;;;;20.17;13.88;;;;;;;26.88;50.53;100556.47;5029470;28;97303;-70
2022/06/25 03:01:23;;;;;;;16.30;14.07;;;;;;;26.85;50.55;100554.06;5027882;28;98696;-70
2022/06/25 03:03:50;;;;;;;16.70;13.55;;;;;;;27.04;50.10;100556.56;5031496;27;97213;-71
2022/06/25 03:06:17;;;;;;;20.25;14.00;;;;;;;27.04;50.26;100572.84;5030455;27;97043;-71
2022/06/25 03:08:43;;;;;;;19.27;13.65;;;;;;;26.87;50.59;100577.31;5031717;27;99168;-71
2022/06/25 03:11:09;;;;;;;19.88;14.23;;;;;;;26.85;50.82;100586.59;5025134;28;98779;-71
2022/06/25 03:13:37;;;;;;;26.13;13.98;;;;;;;26.67;51.94;100586.69;5030061;27;97456;-71
2022/06/25 03:16:03;;;;;;;19.73;13.95;;;;;;;26.76;51.35;100591.16;5029670;27;97024;-71
2022/06/25 03:18:31;;;;;;;17.73;13.38;;;;;;;26.59;51.52;100594.78;5029398;27;98137;-70
2022/06/25 03:20:57;;;;;;;19.02;14.32;;;;;;;26.74;51.22;100606.72;5031789;28;101313;-71
2022/06/25 03:23:24;;;;;;;21.90;15.10;;;;;;;26.65;51.93;100596.84;5024258;27;97188;-71
2022/06/25 03:25:51;;;;;;;22.25;14.45;;;;;;;26.75;51.43;100604.88;5029088;27;97169;-72
2022/06/25 03:28:17;;;;;;;21.00;14.20;;;;;;;26.45;52.51;100606.22;5030001;27;98943;-71
2022/06/25 03:30:44;;;;;;;20.27;14.90;;;;;;;26.54;51.88;100608.81;5030234;27;98795;-70
2022/06/25 03:33:10;;;;;;;19.77;15.50;;;;;;;26.90;50.76;100614.13;5028103;27;97307;-71
2022/06/25 03:35:38;;;;;;;18.15;14.18;;;;;;;26.78;51.02;100616.22;5030906;28;96894;-71
2022/06/25 03:38:05;;;;;;;23.67;15.13;;;;;;;26.98;50.63;100619.56;5027636;27;98979;-71
2022/06/25 03:40:31;;;;;;;19.13;14.70;;;;;;;26.87;50.92;100615.25;5030152;27;98862;-73
2022/06/25 03:42:59;;;;;;;17.90;14.75;;;;;;;27.15;50.18;100620.50;5028001;27;96940;-71
2022/06/25 03:45:26;;;;;;;19.80;15.63;;;;;;;27.11;49.93;100625.38;5029643;27;96825;-71
2022/06/25 03:47:53;;;;;;;22.63;15.60;;;;;;;27.16;50.16;100624.91;5025377;27;99093;-71
2022/06/25 03:50:20;;;;;;;20.73;15.82;;;;;;;26.90;50.75;100630.41;5028011;28;98841;-72
2022/06/25 03:52:49;;;;;;;19.70;15.77;;;;;;;26.75;51.21;100635.53;5025732;27;96931;-71
2022/06/25 03:55:16;;;;;;;23.88;15.30;;;;;;;26.69;51.52;100640.75;5030789;27;96788;-70
2022/06/25 03:57:43;;;;;;;19.88;16.05;;;;;;;26.83;51.23;100642.84;5031074;27;97737;-72
2022/06/25 04:00:11;;;;;;;18.92;14.75;;;;;;;27.02;50.61;100639.94;5030624;27;97841;-70
2022/06/25 04:02:37;;;;;;;21.00;16.02;;;;;;;27.10;50.30;100639.13;5024366;27;97403;-71
2022/06/25 04:05:05;;;;;;;20.85;15.73;;;;;;;27.12;50.16;100646.06;5031386;27;97464;-72
2022/06/25 04:07:31;;;;;;;22.25;15.73;;;;;;;27.24;49.78;100654.78;5026342;27;99460;-71
2022/06/25 04:09:59;;;;;;;18.98;14.85;;;;;;;27.35;50.05;100651.75;5031013;27;98924;-72
2022/06/25 04:12:25;;;;;;;20.70;15.35;;;;;;;27.44;49.72;100655.34;5023924;27;97173;-71
2022/06/25 04:14:52;;;;;;;20.02;15.88;;;;;;;27.32;49.84;100662.91;5029898;27;96920;-70
2022/06/25 04:17:18;;;;;;;20.55;14.85;;;;;;;27.44;49.68;100664.31;5024442;27;98785;-72
2022/06/25 04:19:45;;;;;;;19.38;14.80;;;;;;;27.59;49.34;100661.84;5029553;27;99003;-70
2022/06/25 04:22:12;;;;;;;22.17;14.55;;;;;;;27.62;49.32;100667.81;5029055;27;96816;-71
2022/06/25 04:24:39;;;;;;;19.73;14.45;;;;;;;27.60;49.33;100660.84;5028642;27;96953;-71
2022/06/25 04:29:03;;;;;;;25.00;15.00;;;;;;;27.84;48.55;100663.59;5028052;27;98335;-72
2022/06/25 04:29:56;;;;;;;19.10;14.90;;;;;;;27.88;48.38;100667.69;5023725;28;97403;-71
2022/06/25 04:32:22;;;;;;;20.58;14.55;;;;;;;27.68;49.02;100667.16;5027143;27;97161;-70
2022/06/25 04:34:48;;;;;;;20.77;14.23;;;;;;;27.88;48.48;100675.84;5025735;28;97390;-70
2022/06/25 04:37:15;;;;;;;16.60;13.68;;;;;;;27.72;49.05;100678.50;5025381;28;101716;-70
2022/06/25 04:39:41;;;;;;;20.52;13.98;;;;;;;27.68;48.94;100671.72;5028314;27;98796;-70
2022/06/25 04:42:09;;;;;;;19.10;14.00;;;;;;;27.82;48.57;100679.22;5026103;27;97976;-70
2022/06/25 04:44:35;;;;;;;18.40;13.75;;;;;;;27.91;48.49;100680.06;5029987;27;97378;-70
2022/06/25 04:47:01;;;;;;;18.48;14.25;;;;;;;27.65;49.04;100681.03;5028843;28;98856;-71
2022/06/25 04:49:28;;;;;;;18.33;13.18;;;;;;;27.90;48.44;100681.06;5030485;27;99329;-71
2022/06/25 04:51:54;;;;;;;17.27;13.35;;;;;;;28.01;48.28;100681.63;5029098;27;96804;-71
2022/06/25 04:54:21;;;;;;;15.80;13.20;;;;;;;27.85;48.75;100687.00;5030040;27;97392;-70
2022/06/25 04:56:47;;;;;;;16.95;12.52;;;;;;;28.03;48.26;100689.56;5025036;27;100582;-71
2022/06/25 04:59:18;;;;;;;17.35;13.00;;;;;;;28.02;48.68;100688.75;5023690;27;98838;-71
2022/06/25 05:01:44;;;;;;;15.65;12.27;;;;;;;28.08;48.20;100693.50;5028030;27;96653;-71
2022/06/25 05:04:11;;;;;;;17.98;12.75;;;;;;;28.27;47.82;100696.94;5027723;27;97436;-70
2022/06/25 05:06:37;;;;;;;19.35;13.75;;;;;;;28.90;46.51;100700.63;5028172;27;99103;-70
2022/06/25 05:09:04;;;;;;;17.45;13.20;;;;;;;29.31;45.26;100701.34;5028128;27;98961;-70
2022/06/25 05:11:30;;;;;;;15.75;13.07;;;;;;;29.32;45.09;100702.19;5027606;27;97216;-71
2022/06/25 05:13:57;;;;;;;17.23;13.55;;;;;;;29.44;44.70;100708.97;5028439;27;96864;-70
2022/06/25 05:16:25;;;;;;;16.20;13.05;;;;;;;29.41;44.56;100709.31;5025644;28;99235;-72
2022/06/25 05:18:52;;;;;;;13.90;11.88;;;;;;;30.33;42.66;100719.31;5027614;27;98775;-71
2022/06/25 05:21:18;;;;;;;15.43;12.57;;;;;;;30.25;42.43;100719.41;5025332;27;96841;-70
2022/06/25 05:23:45;;;;;;;18.02;13.40;;;;;;;30.01;42.70;100723.13;5024840;27;97607;-71
2022/06/25 05:26:11;;;;;;;17.02;13.13;;;;;;;29.51;43.77;100722.72;5027321;27;98728;-70
2022/06/25 05:28:38;;;;;;;13.32;11.80;;;;;;;29.63;43.46;100722.16;5022894;27;98735;-70
2022/06/25 05:31:04;;;;;;;16.00;11.90;;;;;;;29.89;43.23;100718.25;5025795;27;97198;-71
2022/06/25 05:33:32;;;;;;;15.25;12.55;;;;;;;29.60;43.39;100725.22;5027509;27;96858;-70
2022/06/25 05:35:58;;;;;;;13.07;11.63;;;;;;;29.64;42.98;100720.28;5025468;28;99335;-70
2022/06/25 05:38:25;;;;;;;12.95;11.57;;;;;;;29.65;43.32;100728.28;5028111;27;100248;-70
2022/06/25 05:40:51;;;;;;;14.77;11.05;;;;;;;29.94;42.72;100724.88;5029575;27;96796;-71
2022/06/25 05:43:18;;;;;;;13.52;10.98;;;;;;;30.09;42.40;100727.69;5026451;27;97543;-70
2022/06/25 05:45:45;;;;;;;18.35;11.77;;;;;;;29.92;42.95;100728.84;5024088;27;97811;-70
2022/06/25 05:48:11;;;;;;;12.20;10.68;;;;;;;30.15;42.03;100729.69;5027035;28;101401;-70
2022/06/25 05:50:39;;;;;;;13.85;11.75;;;;;;;30.42;41.28;100726.41;5032189;27;96724;-70
2022/06/25 05:53:05;;;;;;;13.98;12.48;;;;;;;30.61;40.81;100727.78;5029003;28;96866;-70
2022/06/25 05:55:34;;;;;;;14.55;11.30;;;;;;;30.60;41.03;100731.56;5031074;27;98222;-71
2022/06/25 05:58:00;;;;;;;15.75;11.95;;;;;;;30.54;41.19;100728.72;5028639;28;98686;-71
2022/06/25 06:00:27;;;;;;;15.68;13.25;;;;;;;30.46;41.27;100732.31;5025035;27;96725;-70
2022/06/25 06:02:53;;;;;;;13.68;12.27;;;;;;;30.33;41.30;100732.94;5025578;27;97441;-71
2022/06/25 06:05:20;;;;;;;16.73;11.80;;;;;;;30.05;42.06;100734.53;5032194;27;98739;-71
2022/06/25 06:07:48;;;;;;;14.75;12.32;;;;;;;30.07;42.19;100727.00;5032302;27;99136;-71
2022/06/25 06:10:14;;;;;;;13.35;11.75;;;;;;;30.05;42.30;100726.38;5030651;27;96856;-70
2022/06/25 06:12:41;;;;;;;14.70;11.55;;;;;;;29.91;42.30;100733.41;5028292;27;96989;-70
2022/06/25 06:15:08;;;;;;;12.93;10.85;;;;;;;29.88;42.83;100743.78;5031200;27;99244;-72
2022/06/25 06:17:35;;;;;;;15.88;11.90;;;;;;;29.70;43.18;100736.75;5027020;27;101652;-71
2022/06/25 06:20:01;;;;;;;13.00;11.63;;;;;;;29.99;42.92;100740.72;5032630;27;97644;-71
2022/06/25 06:22:28;;;;;;;15.48;11.93;;;;;;;29.78;43.13;100733.13;5028702;27;97843;-70
2022/06/25 06:24:56;;;;;;;14.65;11.48;;;;;;;29.98;42.77;100739.84;5030507;27;99205;-71
2022/06/25 06:27:22;;;;;;;14.13;11.18;;;;;;;29.79;42.83;100747.59;5027710;27;98130;-70
2022/06/25 06:29:49;;;;;;;13.75;11.23;;;;;;;29.72;43.10;100739.31;5031131;27;97115;-70
2022/06/25 06:32:15;;;;;;;15.57;11.82;;;;;;;29.52;43.54;100744.34;5028150;27;97206;-72
2022/06/25 06:34:42;;;;;;;14.38;10.77;;;;;;;29.58;43.27;100746.34;5028537;27;98901;-70
2022/06/25 06:37:09;;;;;;;17.63;11.70;;;;;;;29.83;43.00;100746.22;5029123;28;98100;-70
2022/06/25 06:39:35;;;;;;;15.35;10.93;;;;;;;29.91;43.11;100743.44;5031890;27;96826;-71
2022/06/25 06:42:03;;;;;;;19.23;11.40;;;;;;;29.88;42.41;100755.53;5032019;27;96980;-71
2022/06/25 06:44:29;;;;;;;14.32;11.48;;;;;;;29.51;43.34;100761.69;5025581;27;99732;-70
2022/06/25 06:46:56;;;;;;;12.82;11.35;;;;;;;29.60;43.40;100752.44;5030776;27;99598;-71
2022/06/25 06:49:22;;;;;;;14.80;11.55;;;;;;;29.67;43.22;100752.56;5029893;27;97167;-71
2022/06/25 06:51:49;;;;;;;12.85;11.55;;;;;;;29.66;43.36;100765.38;5029103;28;97467;-70
2022/06/25 06:54:15;;;;;;;14.73;11.20;;;;;;;30.00;42.64;100761.44;5028006;28;99194;-71
2022/06/25 06:56:42;;;;;;;15.23;11.90;;;;;;;30.09;42.40;100761.22;5029406;27;97226;-71
2022/06/25 06:59:10;;;;;;;14.48;11.38;;;;;;;29.85;42.83;100764.09;5023898;27;96812;-72
2022/06/25 07:01:36;;;;;;;13.30;11.43;;;;;;;29.85;42.44;100765.94;5031427;27;97512;-71
2022/06/25 07:04:03;;;;;;;14.50;10.85;;;;;;;30.04;42.64;100760.06;5030474;27;98527;-71
2022/06/25 07:06:29;;;;;;;14.00;10.48;;;;;;;29.67;43.34;100769.75;5031336;27;99062;-70
2022/06/25 07:08:55;;;;;;;17.40;11.55;;;;;;;30.04;42.63;100762.81;5026731;27;96792;-70
2022/06/25 07:11:31;;;;;;;12.70;11.40;;;;;;;30.04;42.92;100762.81;5029085;27;96903;-70
2022/06/25 07:13:59;;;;;;;13.50;10.98;;;;;;;29.96;42.60;100757.41;5026010;28;98877;-71
2022/06/25 07:16:28;;;;;;;15.90;10.05;;;;;;;29.82;43.16;100761.69;5026792;27;98747;-71
2022/06/25 07:18:55;;;;;;;15.45;10.63;;;;;;;30.02;42.79;100757.53;5022265;27;97632;-71
2022/06/25 07:21:23;;;;;;;14.00;10.90;;;;;;;30.23;42.80;100766.94;5021314;27;98647;-72
2022/06/25 07:23:52;;;;;;;12.23;11.00;;;;;;;30.33;42.44;100762.94;5023220;27;98996;-71
2022/06/25 07:26:19;;;;;;;15.10;10.30;;;;;;;30.56;41.70;100760.22;5026041;27;99784;-71
2022/06/25 07:28:45;;;;;;;15.68;11.50;;;;;;;30.47;41.24;100767.59;5024389;27;96820;-71
2022/06/25 07:31:12;;;;;;;14.20;10.85;;;;;;;30.29;41.72;100756.16;5020744;27;98027;-72
2022/06/25 07:33:39;;;;;;;16.15;11.30;;;;;;;30.24;41.86;100757.72;5023553;27;99052;-72
2022/06/25 07:36:07;;;;;;;14.98;10.55;;;;;;;30.67;41.08;100756.19;5023492;27;98820;-72
2022/06/25 07:38:34;;;;;;;12.38;10.20;;;;;;;30.74;40.83;100751.72;5020800;28;96881;-72
2022/06/25 07:41:01;;;;;;;14.18;11.13;;;;;;;30.92;40.62;100749.47;5024822;27;97030;-71
2022/06/25 07:43:28;;;;;;;13.05;10.45;;;;;;;31.02;40.35;100755.53;5022510;27;99074;-71
2022/06/25 07:45:55;;;;;;;13.57;11.73;;;;;;;30.99;40.45;100749.56;5027100;28;101771;-73
2022/06/25 07:48:22;;;;;;;15.02;11.85;;;;;;;31.59;39.10;100750.28;5018998;27;96897;-71
2022/06/25 07:53:35;;;;;;;14.90;13.30;;;;;;;32.21;38.39;100746.22;5019750;27;97340;-72
2022/06/25 07:56:01;;;;;;;16.80;13.93;;;;;;;32.20;38.46;100747.25;5024807;28;98143;-72
2022/06/25 07:58:28;;;;;;;16.60;13.70;;;;;;;32.61;37.75;100752.91;5021695;27;98830;-71
2022/06/25 08:00:54;;;;;;;17.70;13.15;;;;;;;32.92;37.35;100749.81;5022181;27;98949;-70
2022/06/25 08:03:21;;;;;;;18.02;14.50;;;;;;;33.09;37.13;100756.66;5028706;28;99284;-71
2022/06/25 08:05:47;;;;;;;15.10;13.55;;;;;;;33.25;36.49;100761.00;5018826;27;99138;-71
2022/06/25 08:08:15;;;;;;;17.55;13.73;;;;;;;33.21;36.40;100760.56;5020409;27;97229;-71
2022/06/25 08:10:42;;;;;;;15.50;13.60;;;;;;;33.11;36.63;100765.50;5021235;27;97406;-70
2022/06/25 08:13:09;;;;;;;17.02;15.23;;;;;;;32.55;37.42;100759.16;5023659;27;97656;-71
2022/06/25 08:15:36;;;;;;;15.70;13.93;;;;;;;33.14;36.27;100765.97;5021497;27;98898;-71
2022/06/25 08:18:02;;;;;;;20.48;15.02;;;;;;;33.16;36.63;100769.34;5023351;27;96774;-71
2022/06/25 08:20:29;;;;;;;17.85;14.35;;;;;;;33.84;35.33;100762.16;5021802;27;96893;-71
2022/06/25 08:22:55;;;;;;;17.83;13.65;;;;;;;34.28;34.55;100755.34;5021955;27;98965;-72
2022/06/25 08:25:23;;;;;;;16.15;13.40;;;;;;;34.27;33.59;100762.72;5023050;27;99960;-71
2022/06/25 08:27:53;;;;;;;15.65;13.25;;;;;;;34.54;32.65;100765.50;5027865;27;97041;-72
2022/06/25 08:30:21;;;;;;;14.63;12.75;;;;;;;34.49;32.88;100759.81;5033271;28;97228;-72
2022/06/25 08:32:48;;;;;;;16.20;12.30;;;;;;;34.27;33.57;100768.22;5026039;27;97836;-70
2022/06/25 08:35:14;;;;;;;18.73;12.55;;;;;;;33.87;34.14;100766.41;5027927;27;99523;-72
2022/06/25 08:37:44;;;;;;;14.43;11.73;;;;;;;33.79;34.17;100775.66;5022336;27;96844;-71
2022/06/25 08:40:11;;;;;;;13.75;10.85;;;;;;;34.07;33.92;100771.94;5021654;27;97739;-72
2022/06/25 08:42:39;;;;;;;15.63;11.48;;;;;;;34.03;33.62;100766.03;5027477;27;102254;-71
2022/06/25 08:45:07;;;;;;;12.32;11.02;;;;;;;34.14;33.05;100775.53;5025619;28;97945;-71
2022/06/25 08:47:33;;;;;;;12.90;10.55;;;;;;;33.78;33.32;100784.06;5025094;27;97477;-71
2022/06/25 08:50:03;;;;;;;11.82;10.63;;;;;;;33.68;33.25;100773.44;5023167;27;96966;-71
2022/06/25 08:52:31;;;;;;;15.13;10.55;;;;;;;32.78;34.69;100774.31;5023207;27;98973;-72
2022/06/25 08:54:58;;;;;;;12.98;10.70;;;;;;;32.98;34.79;100785.44;5020180;27;101772;-72
2022/06/25 08:57:25;;;;;;;14.52;11.65;;;;;;;33.04;34.89;100781.91;5020351;28;97052;-71
2022/06/25 08:59:52;;;;;;;14.98;10.80;;;;;;;33.21;34.38;100785.22;5029359;27;96887;-71
2022/06/25 09:02:19;;;;;;;13.13;10.95;;;;;;;33.24;34.53;100784.81;5025840;28;99964;-71
2022/06/25 09:04:45;;;;;;;13.57;11.60;;;;;;;33.14;34.55;100781.56;5028359;28;98779;-71
2022/06/25 09:07:13;;;;;;;11.82;10.43;;;;;;;33.34;33.89;100779.81;5024308;27;96842;-71
2022/06/25 09:09:40;;;;;;;13.45;11.27;;;;;;;33.50;33.85;100786.84;5021531;27;97428;-70
2022/06/25 09:12:09;;;;;;;12.63;11.32;;;;;;;32.59;35.07;100777.72;5025233;27;98943;-70
2022/06/25 09:14:38;;;;;;;15.15;11.93;;;;;;;32.84;35.10;100780.91;5024896;27;99391;-71
2022/06/25 09:17:09;;;;;;;14.50;11.95;;;;;;;33.22;34.09;100778.66;5021674;27;97047;-72
2022/06/25 09:19:38;;;;;;;16.58;11.40;;;;;;;33.27;34.03;100781.69;5022383;27;97541;-71
2022/06/25 09:22:06;;;;;;;14.23;11.23;;;;;;;33.11;34.34;100779.19;5024567;27;99067;-71
2022/06/25 09:24:43;;;;;;;14.48;11.63;;;;;;;33.53;34.22;100778.25;5030661;27;99119;-70
2022/06/25 09:27:10;;;;;;;14.20;11.68;;;;;;;33.21;33.51;100779.75;5026708;28;96727;-72
2022/06/25 09:29:38;;;;;;;11.20;10.05;;;;;;;33.31;33.47;100773.88;5029554;27;96798;-71
2022/06/25 09:32:07;;;;;;;13.65;10.20;;;;;;;32.81;34.79;100784.03;5024319;28;99024;-71
2022/06/25 09:34:34;;;;;;;12.93;11.32;;;;;;;33.27;34.29;100776.19;5024638;28;100878;-72
2022/06/25 09:37:19;;;;;;;12.95;10.80;;;;;;;33.12;34.04;100779.00;5022064;28;97825;-71
2022/06/25 09:39:46;;;;;;;13.02;10.55;;;;;;;33.31;33.94;100771.16;5032287;28;96666;-71
2022/06/25 09:42:37;;;;;;;13.68;9.98;;;;;;;33.42;33.87;100778.78;5034238;27;98899;-71
2022/06/25 09:45:08;;;;;;;10.82;9.70;;;;;;;33.20;34.01;100787.09;5008970;27;101907;-71
2022/06/25 09:47:39;;;;;;;12.27;9.60;;;;;;;33.32;33.78;100784.66;5028564;27;96770;-70
2022/06/25 09:50:11;;;;;;;11.90;10.13;;;;;;;32.96;34.48;100786.66;5027340;27;97996;-71
2022/06/25 09:52:39;;;;;;;11.90;9.63;;;;;;;33.17;34.12;100784.72;5023708;28;99204;-72
2022/06/25 09:55:06;;;;;;;12.73;8.82;;;;;;;33.08;33.92;100787.84;5027520;28;97567;-72
2022/06/25 09:57:33;;;;;;;10.88;9.07;;;;;;;33.32;33.67;100787.38;5025516;27;97098;-71
2022/06/25 10:00:01;;;;;;;11.52;8.98;;;;;;;33.29;33.59;100787.78;5022509;27;97821;-70
2022/06/25 10:02:29;;;;;;;9.75;8.80;;;;;;;33.45;33.38;100789.34;5022526;28;97674;-71
2022/06/25 10:05:02;;;;;;;12.10;9.57;;;;;;;33.40;33.44;100784.50;5028933;28;99270;-71
2022/06/25 10:10:23;;;;;;;14.02;9.32;;;;;;;33.22;33.64;100789.63;4989415;28;97172;-70
2022/06/25 10:12:51;;;;;;;10.77;9.43;;;;;;;33.03;33.73;100801.25;5023033;28;98901;-72
2022/06/25 10:15:19;;;;;;;12.27;10.82;;;;;;;32.68;34.96;100784.78;5022406;28;100609;-71
2022/06/25 10:17:47;;;;;;;11.25;9.73;;;;;;;33.21;33.91;100793.44;5029472;27;96603;-71
2022/06/25 10:20:16;;;;;;;12.13;9.93;;;;;;;33.30;33.79;100794.94;5032227;27;96801;-71
2022/06/25 10:22:45;;;;;;;11.32;9.77;;;;;;;33.42;33.44;100792.47;5026685;27;99337;-71
2022/06/25 10:25:13;;;;;;;10.68;9.02;;;;;;;33.39;33.35;100796.50;5033818;27;99399;-70
2022/06/25 10:27:44;;;;;;;10.32;9.30;;;;;;;33.46;33.14;100786.41;5031757;27;97298;-70
2022/06/25 10:30:11;;;;;;;12.93;9.77;;;;;;;33.43;33.16;100795.03;5031628;27;96791;-70
2022/06/25 10:32:46;;;;;;;10.30;8.65;;;;;;;33.49;33.28;100791.47;5030422;27;101688;-71
2022/06/25 10:35:29;;;;;;;10.38;9.07;;;;;;;33.68;33.19;100789.03;5029819;27;98072;-71
2022/06/25 10:38:05;;;;;;;10.35;9.35;;;;;;;33.89;32.66;100789.78;5026284;27;96896;-72
2022/06/25 10:40:33;;;;;;;9.77;8.75;;;;;;;33.95;32.54;100782.66;5024269;28;96885;-72
2022/06/25 10:43:24;;;;;;;10.60;9.23;;;;;;;33.09;33.83;100784.03;5031475;27;99368;-72
2022/06/25 10:45:51;;;;;;;11.00;8.80;;;;;;;33.02;33.88;100785.88;5028483;28;98827;-71
2022/06/25 10:48:19;;;;;;;11.57;8.70;;;;;;;33.37;33.21;100781.28;5031861;27;96732;-72
2022/06/25 10:50:52;;;;;;;12.20;10.05;;;;;;;33.21;33.58;100790.69;5027873;27;96888;-72
2022/06/25 10:53:23;;;;;;;13.43;10.90;;;;;;;33.02;34.05;100786.72;5032282;27;97844;-71
2022/06/25 10:56:22;;;;;;;12.05;9.75;;;;;;;32.82;34.49;100792.03;5030945;27;99674;-71
2022/06/25 10:58:50;;;;;;;10.65;9.13;;;;;;;32.93;33.88;100796.13;5014481;27;97069;-72
2022/06/25 11:01:22;;;;;;;11.65;9.25;;;;;;;33.09;34.15;100789.50;5032232;27;96836;-72
2022/06/25 11:03:53;;;;;;;10.98;8.85;;;;;;;32.72;34.62;100791.53;5030065;27;98236;-72
2022/06/25 11:06:23;;;;;;;10.20;9.10;;;;;;;32.55;34.32;100787.38;5025093;28;97741;-71
2022/06/25 11:08:54;;;;;;;10.75;8.43;;;;;;;32.55;34.25;100789.25;5022570;27;98823;-73
2022/06/25 11:11:26;;;;;;;11.13;8.88;;;;;;;32.75;34.23;100796.63;5023763;28;97444;-71
2022/06/25 11:13:53;;;;;;;9.27;8.20;;;;;;;32.87;34.35;100796.09;5027765;27;101234;-71
2022/06/25 11:16:21;;;;;;;11.02;8.32;;;;;;;33.13;34.19;100797.13;5023121;27;98810;-72
2022/06/25 11:18:49;;;;;;;10.07;7.45;;;;;;;33.00;34.06;100794.31;5023347;28;96885;-71
2022/06/25 11:21:28;;;;;;;11.40;9.10;;;;;;;33.13;33.48;100799.88;5024373;27;97841;-71
2022/06/25 11:24:06;;;;;;;10.18;7.85;;;;;;;33.42;33.08;100787.00;5023782;27;100312;-71
2022/06/25 11:29:20;;;;;;;10.57;7.20;;;;;;;34.29;31.56;100787.22;5030485;28;96934;-71
2022/06/25 11:31:46;;;;;;;11.73;7.80;;;;;;;34.23;31.84;100788.03;5028879;27;99138;-72